Time;durP1;ratioP1;P1;durP2;ratioP2;P2;SDS_P1;SDS_P2;PMS_P1;PMS_P2;Temp;Humidity;BMP_temperature;BMP_pressure;BME280_temperature;BME280_humidity;BME280_pressure;Samples;Min_cycle;Max_cycle;Signal;HPM_P1;HPM_P2
2020/12/31 00:00:32;;;;;;;71.47;40.08;;;;;;;4.33;80.15;93449.91;1815758;78;21055;-54
2020/12/31 00:02:59;;;;;;;66.60;36.88;;;;;;;4.27;79.77;93464.50;1815773;79;21051;-55
2020/12/31 00:05:28;;;;;;;59.03;31.82;;;;;;;4.19;79.82;93461.24;1816099;79;22267;-55
2020/12/31 00:07:56;;;;;;;83.03;43.92;;;;;;;4.12;79.67;93443.02;1815956;78;21115;-54
2020/12/31 00:10:24;;;;;;;81.20;44.03;;;;;;;3.97;79.83;93453.59;1815911;79;21091;-54
2020/12/31 00:12:54;;;;;;;75.10;40.58;;;;;;;3.91;80.22;93457.30;1815859;78;21142;-55
2020/12/31 00:15:24;;;;;;;70.50;37.17;;;;;;;3.88;80.24;93467.69;1815899;79;21175;-54
2020/12/31 00:17:52;;;;;;;78.17;44.85;;;;;;;3.81;80.62;93471.38;1815909;79;21488;-54
2020/12/31 00:20:19;;;;;;;76.20;44.15;;;;;;;3.74;80.64;93484.43;1815800;78;21052;-55
2020/12/31 00:22:47;;;;;;;75.62;41.70;;;;;;;3.68;81.00;93496.44;1815859;79;21202;-54
2020/12/31 00:25:15;;;;;;;71.42;38.10;;;;;;;3.73;81.16;93489.09;1815861;79;21256;-54
2020/12/31 00:27:42;;;;;;;78.92;40.85;;;;;;;3.78;81.07;93482.36;1805918;78;21157;-55
2020/12/31 00:30:16;;;;;;;73.70;39.55;;;;;;;3.80;81.11;93483.45;1799966;79;21975;-55
2020/12/31 00:32:40;;;;;;;71.15;39.05;;;;;;;3.81;80.88;93483.63;1761835;80;21109;-55
2020/12/31 00:35:08;;;;;;;71.65;36.90;;;;;;;3.81;80.98;93485.56;1760020;81;21507;-55
2020/12/31 00:37:36;;;;;;;74.27;37.30;;;;;;;3.86;81.10;93489.12;1777946;80;21067;-54
2020/12/31 00:40:05;;;;;;;85.92;44.58;;;;;;;3.92;81.09;93480.58;1762146;81;21106;-55
2020/12/31 00:42:33;;;;;;;67.85;35.45;;;;;;;3.97;81.19;93488.96;1777960;80;21206;-53
2020/12/31 00:45:01;;;;;;;72.15;40.05;;;;;;;4.03;81.06;93486.46;1762048;81;21090;-54
2020/12/31 00:47:29;;;;;;;70.87;38.50;;;;;;;4.07;80.94;93479.69;1759961;80;21132;-54
2020/12/31 00:49:57;;;;;;;64.55;33.67;;;;;;;4.11;80.94;93483.09;1777948;80;21230;-54
2020/12/31 00:52:25;;;;;;;55.73;31.82;;;;;;;4.19;80.96;93478.16;1777991;80;21111;-55
2020/12/31 00:54:53;;;;;;;49.15;29.63;;;;;;;4.25;80.79;93488.06;1762155;81;21392;-56
2020/12/31 00:57:21;;;;;;;43.95;25.72;;;;;;;4.29;80.54;93476.48;1777913;79;21072;-54
2020/12/31 00:59:49;;;;;;;49.13;30.32;;;;;;;4.33;80.44;93477.13;1762157;81;21070;-56
2020/12/31 01:02:17;;;;;;;63.48;33.18;;;;;;;4.37;80.14;93476.41;1777889;80;21080;-54
2020/12/31 01:04:45;;;;;;;58.10;32.90;;;;;;;4.39;79.78;93478.70;1762118;80;21153;-54
2020/12/31 01:07:17;;;;;;;62.15;34.40;;;;;;;4.41;79.46;93491.27;1777962;79;21354;-55
2020/12/31 01:09:44;;;;;;;55.98;31.57;;;;;;;4.41;79.27;93495.36;1762351;81;21146;-54
2020/12/31 01:12:12;;;;;;;58.90;32.63;;;;;;;4.39;78.99;93489.59;1759968;81;21176;-55
2020/12/31 01:14:40;;;;;;;54.13;32.93;;;;;;;4.32;79.15;93489.22;1777865;80;21084;-54
2020/12/31 01:17:08;;;;;;;50.70;29.85;;;;;;;4.29;79.20;93487.38;1778043;80;21565;-55
2020/12/31 01:19:36;;;;;;;57.60;31.95;;;;;;;4.33;79.34;93481.20;1778009;80;21327;-54
2020/12/31 01:22:04;;;;;;;55.58;31.97;;;;;;;4.40;79.32;93482.33;1762036;81;21518;-54
2020/12/31 01:24:32;;;;;;;63.98;33.30;;;;;;;4.46;79.28;93487.98;1777897;80;21060;-54
2020/12/31 01:27:02;;;;;;;59.53;31.62;;;;;;;4.49;79.12;93485.16;1764297;80;21180;-55
2020/12/31 01:29:30;;;;;;;64.92;34.03;;;;;;;4.49;78.96;93489.24;1761992;81;21070;-55
2020/12/31 01:31:58;;;;;;;67.72;36.73;;;;;;;4.43;78.67;93486.89;1774892;80;21384;-54
2020/12/31 01:34:26;;;;;;;64.47;35.63;;;;;;;4.34;78.61;93486.04;1761815;81;21121;-54
2020/12/31 01:36:54;;;;;;;74.70;38.23;;;;;;;4.27;78.59;93484.30;1742575;82;21145;-54
2020/12/31 01:39:22;;;;;;;80.85;43.10;;;;;;;4.19;78.51;93488.45;1761792;81;21169;-55
2020/12/31 01:41:50;;;;;;;111.60;52.15;;;;;;;4.11;78.67;93487.75;1774895;80;21073;-53
2020/12/31 01:44:18;;;;;;;121.45;56.20;;;;;;;4.07;78.82;93494.66;1761827;81;21422;-52
2020/12/31 01:46:48;;;;;;;101.97;51.50;;;;;;;3.99;78.82;93502.89;1774866;80;21160;-53
2020/12/31 01:49:19;;;;;;;83.17;41.10;;;;;;;3.96;79.25;93502.41;1761955;81;21574;-54
2020/12/31 01:51:47;;;;;;;83.27;40.78;;;;;;;3.97;79.40;93494.98;1774941;80;21093;-54
2020/12/31 01:54:16;;;;;;;79.35;39.83;;;;;;;4.01;79.46;93499.13;1761814;81;21110;-52
2020/12/31 01:56:45;;;;;;;79.22;41.55;;;;;;;4.08;79.68;93502.98;1774863;80;21197;-54
2020/12/31 01:59:13;;;;;;;88.22;46.70;;;;;;;4.10;79.32;93507.41;1736429;81;21166;-54
2020/12/31 02:01:41;;;;;;;91.67;44.85;;;;;;;4.09;79.35;93516.00;1774873;80;21057;-54
2020/12/31 02:04:10;;;;;;;90.12;46.73;;;;;;;4.10;79.26;93518.89;1761800;81;21511;-55
2020/12/31 02:06:38;;;;;;;82.08;42.88;;;;;;;4.06;79.23;93517.63;1774846;80;21066;-54
2020/12/31 02:09:06;;;;;;;113.85;55.73;;;;;;;4.06;79.43;93518.98;1761819;81;21210;-54
2020/12/31 02:11:34;;;;;;;96.30;47.83;;;;;;;4.10;79.44;93514.22;1774793;80;21132;-56
2020/12/31 02:14:02;;;;;;;98.45;46.70;;;;;;;4.14;79.33;93516.22;1761817;81;21069;-53
2020/12/31 02:16:35;;;;;;;77.40;38.78;;;;;;;4.18;79.42;93516.09;1774975;80;21501;-54
2020/12/31 02:19:15;;;;;;;87.35;44.03;;;;;;;4.21;79.23;93525.52;1761952;81;21562;-54
2020/12/31 02:21:51;;;;;;;87.97;40.35;;;;;;;4.21;79.02;93524.16;1774993;80;21204;-55
2020/12/31 02:24:20;;;;;;;65.83;31.45;;;;;;;4.15;78.95;93520.47;1761643;81;21086;-54
2020/12/31 02:26:49;;;;;;;69.40;35.75;;;;;;;4.11;79.00;93522.55;1774783;80;21228;-53
2020/12/31 02:29:18;;;;;;;62.20;33.10;;;;;;;4.09;79.35;93522.19;1749802;81;21131;-53
2020/12/31 02:31:47;;;;;;;65.25;34.78;;;;;;;4.15;79.61;93531.94;1749722;81;21135;-52
2020/12/31 02:34:15;;;;;;;77.90;40.60;;;;;;;4.15;79.37;93538.16;1751860;82;21162;-54
2020/12/31 02:36:43;;;;;;;242.05;98.55;;;;;;;4.12;79.50;93532.23;1713381;83;21181;-54
2020/12/31 02:39:13;;;;;;;163.62;71.12;;;;;;;4.16;79.59;93538.31;1751883;80;21531;-54
2020/12/31 02:41:41;;;;;;;128.20;57.65;;;;;;;4.16;79.43;93532.88;1713539;83;21498;-54
2020/12/31 02:44:09;;;;;;;225.50;96.80;;;;;;;4.19;79.43;93536.08;1767408;81;20997;-55
2020/12/31 02:46:37;;;;;;;144.43;66.92;;;;;;;4.21;79.36;93537.77;1751862;80;21828;-55
2020/12/31 02:49:05;;;;;;;118.87;59.15;;;;;;;4.23;79.55;93546.87;1713411;83;21141;-56
2020/12/31 02:51:34;;;;;;;103.95;52.40;;;;;;;4.20;79.19;93549.85;1767460;81;21147;-55
2020/12/31 02:54:03;;;;;;;108.52;52.40;;;;;;;4.12;79.13;93543.11;1751877;82;21077;-56
2020/12/31 02:56:31;;;;;;;100.38;51.60;;;;;;;4.04;79.40;93541.78;1713476;83;21078;-55
2020/12/31 02:58:59;;;;;;;106.03;50.85;;;;;;;4.05;79.47;93532.42;1751833;80;21257;-56
2020/12/31 03:01:27;;;;;;;110.50;57.40;;;;;;;4.10;79.29;93531.13;1713400;83;21137;-54
2020/12/31 03:03:55;;;;;;;105.05;55.43;;;;;;;4.14;79.11;93548.88;1751880;82;21117;-55
2020/12/31 03:06:23;;;;;;;104.40;55.78;;;;;;;4.11;79.00;93550.34;1713389;82;21229;-55
2020/12/31 03:08:51;;;;;;;104.25;54.75;;;;;;;4.04;79.28;93549.95;1751817;82;21474;-57
2020/12/31 03:11:21;;;;;;;161.12;81.50;;;;;;;4.06;79.26;93547.55;1713404;83;21211;-55
2020/12/31 03:13:49;;;;;;;139.28;67.95;;;;;;;4.04;79.30;93542.40;1751796;82;21118;-56
2020/12/31 03:16:18;;;;;;;91.92;48.50;;;;;;;4.04;79.61;93545.87;1713541;83;21081;-53
2020/12/31 03:18:46;;;;;;;106.58;55.88;;;;;;;4.10;79.58;93548.23;1751829;82;21569;-54
2020/12/31 03:21:16;;;;;;;106.03;58.02;;;;;;;4.12;79.42;93551.86;1713546;82;21577;-55
2020/12/31 03:23:44;;;;;;;140.30;69.55;;;;;;;4.15;79.50;93553.13;1767433;79;21227;-55
2020/12/31 03:26:12;;;;;;;162.88;83.10;;;;;;;4.21;79.52;93556.81;1751784;82;21090;-59
2020/12/31 03:28:40;;;;;;;169.47;86.60;;;;;;;4.28;79.54;93558.56;1728191;81;21063;-55
2020/12/31 03:31:08;;;;;;;142.40;73.83;;;;;;;4.24;79.26;93555.94;1777938;80;21522;-55
2020/12/31 03:33:37;;;;;;;132.95;68.55;;;;;;;4.25;79.30;93560.19;1756282;81;21547;-57
2020/12/31 03:36:05;;;;;;;130.65;70.83;;;;;;;4.29;79.21;93559.50;1756124;81;21435;-56
2020/12/31 03:38:33;;;;;;;130.37;72.42;;;;;;;4.35;79.18;93563.19;1777876;80;21588;-55
2020/12/31 03:41:00;;;;;;;145.12;80.12;;;;;;;4.42;79.04;93561.60;1756247;81;21063;-56
2020/12/31 03:43:28;;;;;;;147.70;78.47;;;;;;;4.47;79.14;93545.33;1778015;80;21082;-55
2020/12/31 03:45:56;;;;;;;161.32;84.67;;;;;;;4.55;79.08;93541.94;1756377;81;21110;-55
2020/12/31 03:48:24;;;;;;;144.20;75.67;;;;;;;4.60;78.76;93552.27;1778002;80;21394;-54
2020/12/31 03:50:52;;;;;;;142.43;73.42;;;;;;;4.65;78.60;93563.22;1756184;81;21083;-54
2020/12/31 03:53:19;;;;;;;133.65;69.77;;;;;;;4.65;78.41;93565.95;1778000;80;21157;-54
2020/12/31 03:55:47;;;;;;;130.12;71.57;;;;;;;4.66;78.34;93555.98;1756272;81;21515;-54
2020/12/31 03:58:15;;;;;;;143.02;77.17;;;;;;;4.68;78.40;93556.31;1777999;80;21172;-55
2020/12/31 04:00:43;;;;;;;139.37;72.82;;;;;;;4.73;78.36;93559.84;1756304;81;21198;-54
2020/12/31 04:03:12;;;;;;;119.08;68.12;;;;;;;4.78;78.23;93562.00;1756369;81;21178;-55
2020/12/31 04:05:40;;;;;;;152.10;80.72;;;;;;;4.86;78.36;93567.39;1777924;80;21149;-54
2020/12/31 04:08:08;;;;;;;139.32;74.62;;;;;;;4.92;77.71;93569.71;1778014;80;21065;-55
2020/12/31 04:10:36;;;;;;;137.20;73.28;;;;;;;4.90;77.45;93574.84;1778002;80;21131;-53
2020/12/31 04:13:05;;;;;;;133.50;73.47;;;;;;;4.95;77.45;93578.98;1777967;80;21335;-53
2020/12/31 04:15:33;;;;;;;125.55;73.57;;;;;;;5.02;77.35;93578.73;1756198;81;21149;-53
2020/12/31 04:18:01;;;;;;;130.37;74.53;;;;;;;5.09;77.15;93575.77;1777939;80;21070;-53
2020/12/31 04:20:29;;;;;;;143.20;79.97;;;;;;;5.07;76.96;93578.17;1756258;81;21063;-54
2020/12/31 04:22:57;;;;;;;179.32;92.65;;;;;;;5.06;77.08;93577.42;1756279;81;21102;-54
2020/12/31 04:25:25;;;;;;;179.32;89.85;;;;;;;5.08;76.70;93581.83;1777941;80;21263;-55
2020/12/31 04:27:52;;;;;;;162.53;86.53;;;;;;;5.06;76.69;93582.87;1754451;81;21079;-55
2020/12/31 04:30:20;;;;;;;144.62;76.92;;;;;;;5.09;76.79;93588.81;1774726;80;21050;-56
2020/12/31 04:32:50;;;;;;;155.45;83.78;;;;;;;5.16;76.79;93595.99;1742649;82;21066;-54
2020/12/31 04:35:18;;;;;;;131.70;75.47;;;;;;;5.23;76.80;93586.98;1774717;80;21066;-54
2020/12/31 04:37:46;;;;;;;132.50;72.10;;;;;;;5.33;76.66;93583.11;1742777;82;22122;-52
2020/12/31 04:40:14;;;;;;;133.78;76.92;;;;;;;5.43;76.47;93591.54;1774555;80;21133;-53
2020/12/31 04:42:42;;;;;;;142.20;78.07;;;;;;;5.47;75.78;93598.99;1742664;82;21047;-55
2020/12/31 04:45:10;;;;;;;135.30;74.47;;;;;;;5.35;75.51;93598.42;1774590;80;21073;-55
2020/12/31 04:47:47;;;;;;;132.67;71.05;;;;;;;5.27;75.53;93599.27;1742669;82;21070;-55
2020/12/31 04:50:15;;;;;;;137.45;77.08;;;;;;;5.22;75.62;93597.72;1746881;80;22663;-55
2020/12/31 04:52:43;;;;;;;136.90;80.07;;;;;;;5.21;76.00;93607.69;1715848;82;21147;-52
2020/12/31 04:55:11;;;;;;;123.15;73.42;;;;;;;5.31;76.14;93612.78;1774602;80;20986;-53
2020/12/31 04:57:39;;;;;;;127.85;74.12;;;;;;;5.46;75.81;93612.47;1735226;82;21084;-54
2020/12/31 05:00:09;;;;;;;119.97;62.53;;;;;;;5.48;75.17;93626.42;1742399;82;21058;-54
2020/12/31 05:02:37;;;;;;;122.82;67.35;;;;;;;5.33;75.35;93612.52;1815887;79;21202;-57
2020/12/31 05:05:04;;;;;;;143.22;82.85;;;;;;;5.27;75.31;93609.42;1815747;79;21123;-56
2020/12/31 05:07:32;;;;;;;160.07;88.85;;;;;;;5.19;75.51;93616.30;1815875;78;21052;-55
2020/12/31 05:10:10;;;;;;;161.20;90.57;;;;;;;5.14;75.92;93616.86;1815802;79;21067;-55
2020/12/31 05:12:38;;;;;;;198.07;117.70;;;;;;;5.13;76.04;93607.16;1815935;79;21062;-56
2020/12/31 05:15:07;;;;;;;193.52;114.45;;;;;;;5.09;76.18;93614.70;1815963;79;21552;-55
2020/12/31 05:17:34;;;;;;;157.57;92.35;;;;;;;5.11;76.30;93615.02;1815840;78;21146;-54
2020/12/31 05:20:14;;;;;;;151.15;88.75;;;;;;;5.19;76.23;93628.56;1815886;79;21126;-57
2020/12/31 05:22:41;;;;;;;137.77;83.60;;;;;;;5.28;75.95;93624.58;1815816;79;21066;-58
2020/12/31 05:25:09;;;;;;;143.65;89.03;;;;;;;5.27;75.68;93617.60;1815838;78;21071;-54
2020/12/31 05:27:38;;;;;;;146.68;87.15;;;;;;;5.23;75.92;93610.89;1815812;78;21378;-53
2020/12/31 05:30:09;;;;;;;167.30;102.20;;;;;;;5.29;76.16;93617.92;1767197;80;21153;-56
2020/12/31 05:32:39;;;;;;;160.15;98.92;;;;;;;5.40;76.05;93618.34;1791822;80;21154;-56
2020/12/31 05:35:18;;;;;;;166.70;101.58;;;;;;;5.47;75.62;93618.08;1751880;80;20998;-56
2020/12/31 05:37:46;;;;;;;159.63;96.50;;;;;;;5.44;75.30;93624.42;1713561;83;21153;-56
2020/12/31 05:40:14;;;;;;;155.20;89.85;;;;;;;5.41;75.26;93630.77;1751896;82;21366;-56
2020/12/31 05:42:43;;;;;;;161.10;95.42;;;;;;;5.36;75.02;93633.44;1713494;83;21129;-56
2020/12/31 05:45:15;;;;;;;153.62;91.37;;;;;;;5.28;75.13;93630.03;1767586;81;21485;-56
2020/12/31 05:47:53;;;;;;;163.37;99.17;;;;;;;5.23;75.25;93640.13;1751658;82;21205;-56
2020/12/31 05:53:07;;;;;;;154.90;95.72;;;;;;;5.28;75.85;93651.84;1842256;78;22198;-56
2020/12/31 05:55:35;;;;;;;153.02;92.88;;;;;;;5.30;75.65;93645.34;1817582;79;21050;-56
2020/12/31 05:58:02;;;;;;;156.40;95.00;;;;;;;5.33;75.52;93651.27;1817457;78;21203;-58
2020/12/31 06:00:30;;;;;;;165.25;97.10;;;;;;;5.30;75.53;93658.39;1757445;79;21173;-56
2020/12/31 06:02:59;;;;;;;161.92;95.87;;;;;;;5.17;75.45;93660.95;1817589;78;21065;-56
2020/12/31 06:05:28;;;;;;;168.60;97.97;;;;;;;5.11;75.62;93661.97;1817515;79;21105;-56
2020/12/31 06:07:59;;;;;;;178.25;103.17;;;;;;;5.08;75.88;93664.96;1817425;78;21474;-56
2020/12/31 06:10:30;;;;;;;193.28;115.40;;;;;;;5.17;76.00;93665.05;1817651;78;22101;-57
2020/12/31 06:13:00;;;;;;;198.60;115.10;;;;;;;5.27;75.92;93659.24;1817332;79;21164;-59
2020/12/31 06:15:37;;;;;;;220.80;123.85;;;;;;;5.37;75.63;93664.96;1817381;79;21095;-55
2020/12/31 06:18:06;;;;;;;176.25;101.72;;;;;;;5.43;75.36;93671.98;1817505;78;21086;-55
2020/12/31 06:20:38;;;;;;;171.35;102.95;;;;;;;5.44;75.21;93671.53;1817466;79;21061;-56
2020/12/31 06:23:13;;;;;;;184.72;108.40;;;;;;;5.44;75.17;93668.80;1817349;78;21377;-56
2020/12/31 06:25:46;;;;;;;182.45;108.72;;;;;;;5.48;75.21;93659.92;1817381;78;21173;-56
2020/12/31 06:28:20;;;;;;;184.72;112.10;;;;;;;5.54;75.11;93649.19;1817434;78;21053;-57
2020/12/31 06:30:52;;;;;;;180.97;105.87;;;;;;;5.56;75.18;93643.47;1817417;78;21088;-59
2020/12/31 06:33:26;;;;;;;165.65;104.63;;;;;;;5.64;75.04;93635.81;1817508;78;21138;-57
2020/12/31 06:35:59;;;;;;;200.70;117.47;;;;;;;5.68;74.70;93644.63;1817391;78;22116;-57
2020/12/31 06:38:48;;;;;;;;;;;;;;;5.59;74.47;93654.86;1819645;79;21566;-57
2020/12/31 06:41:38;;;;;;;213.70;121.10;;;;;;;5.52;74.56;93655.70;1791962;79;20218;-57
2020/12/31 06:44:14;;;;;;;238.57;156.18;;;;;;;5.51;74.54;93639.17;1785313;80;21568;-58
2020/12/31 06:46:47;;;;;;;273.10;162.90;;;;;;;5.51;74.37;93638.58;1785102;80;21148;-57
2020/12/31 06:49:16;;;;;;;248.38;154.78;;;;;;;5.46;74.59;93635.66;1784797;80;21428;-56
2020/12/31 06:51:44;;;;;;;273.02;162.62;;;;;;;5.48;74.92;93629.92;1785502;80;21467;-60
2020/12/31 06:54:28;;;;;;;252.47;151.78;;;;;;;5.55;75.05;93624.80;1780705;80;21090;-57
2020/12/31 06:56:57;;;;;;;246.57;146.85;;;;;;;5.68;74.87;93630.98;1780136;80;21451;-57
2020/12/31 06:59:30;;;;;;;243.20;150.45;;;;;;;5.75;74.60;93620.59;1783256;79;21082;-60
2020/12/31 07:02:01;;;;;;;215.75;136.35;;;;;;;5.81;74.41;93627.64;1750241;80;22119;-57
2020/12/31 07:04:34;;;;;;;204.95;124.75;;;;;;;5.84;74.25;93633.56;1776942;79;21122;-57
2020/12/31 07:07:28;;;;;;;207.92;129.95;;;;;;;5.86;74.07;93639.34;1754854;81;21202;-58
2020/12/31 07:09:59;;;;;;;262.50;157.90;;;;;;;5.89;74.00;93642.55;1704726;83;21087;-58
2020/12/31 07:12:41;;;;;;;209.35;121.22;;;;;;;5.92;74.05;93641.65;1730856;81;21071;-57
2020/12/31 07:15:10;;;;;;;151.65;91.12;;;;;;;5.94;74.20;93639.27;1732875;81;21229;-58
2020/12/31 07:17:44;;;;;;;160.28;94.00;;;;;;;5.95;74.45;93644.88;1693988;81;21571;-59
2020/12/31 07:20:15;;;;;;;140.95;85.75;;;;;;;5.97;74.50;93633.66;1712772;82;21123;-58
2020/12/31 07:22:43;;;;;;;145.22;83.62;;;;;;;5.97;74.51;93634.28;1744902;81;21119;-58
2020/12/31 07:25:16;;;;;;;184.70;108.50;;;;;;;5.94;74.61;93633.19;1747708;81;21539;-59
2020/12/31 07:27:50;;;;;;;284.98;162.50;;;;;;;5.98;74.66;93639.89;1704616;83;21368;-59
2020/12/31 07:30:22;;;;;;;299.83;176.02;;;;;;;5.92;74.04;93632.09;1724949;82;21175;-58
2020/12/31 07:33:00;;;;;;;254.45;145.50;;;;;;;5.83;74.20;93644.33;1726085;82;21731;-58
2020/12/31 07:35:36;;;;;;;263.52;156.50;;;;;;;5.86;74.42;93637.98;1711456;83;21186;-59
2020/12/31 07:38:16;;;;;;;309.18;180.97;;;;;;;5.89;74.42;93641.18;1746128;81;21092;-57
2020/12/31 07:40:53;;;;;;;319.32;182.43;;;;;;;5.89;74.56;93632.41;1734658;81;21397;-58
2020/12/31 07:43:24;;;;;;;302.27;173.07;;;;;;;5.88;74.66;93632.83;1725894;82;21620;-60
2020/12/31 07:46:01;;;;;;;271.80;161.75;;;;;;;5.84;74.88;93630.84;1721628;83;21139;-58
2020/12/31 07:48:31;;;;;;;316.95;181.22;;;;;;;5.88;75.09;93627.38;1720760;82;21186;-58
2020/12/31 07:51:01;;;;;;;323.43;185.75;;;;;;;5.87;74.74;93632.09;1728540;81;21238;-57
2020/12/31 07:53:31;;;;;;;302.05;175.27;;;;;;;5.87;74.84;93628.58;1722176;82;21208;-58
2020/12/31 07:55:59;;;;;;;294.35;164.05;;;;;;;5.96;74.89;93623.20;1724015;81;21186;-56
2020/12/31 07:58:32;;;;;;;288.82;162.62;;;;;;;6.07;74.62;93623.56;1721046;81;21199;-56
2020/12/31 08:01:04;;;;;;;279.10;159.55;;;;;;;6.16;74.56;93626.37;1710903;83;21175;-56
2020/12/31 08:03:33;;;;;;;292.32;166.40;;;;;;;6.20;74.37;93622.90;1725866;81;21214;-57
2020/12/31 08:06:08;;;;;;;299.23;181.25;;;;;;;6.26;74.40;93620.52;1726625;82;21205;-55
2020/12/31 08:08:36;;;;;;;348.87;205.03;;;;;;;6.29;74.43;93617.47;1701512;83;21187;-56
2020/12/31 08:11:08;;;;;;;352.57;212.05;;;;;;;6.40;74.50;93614.53;1713281;82;21068;-57
2020/12/31 08:13:40;;;;;;;282.80;165.57;;;;;;;6.48;74.20;93610.92;1722604;82;21154;-56
2020/12/31 08:16:14;;;;;;;261.48;151.47;;;;;;;6.45;73.76;93610.44;1706013;83;21174;-56
2020/12/31 08:18:42;;;;;;;320.23;185.07;;;;;;;6.43;73.71;93611.48;1689379;83;21407;-57
2020/12/31 08:21:10;;;;;;;346.15;197.78;;;;;;;6.42;73.49;93623.63;1714778;81;21146;-56
2020/12/31 08:23:39;;;;;;;340.20;200.62;;;;;;;6.39;73.58;93613.59;1717572;81;21167;-55
2020/12/31 08:26:10;;;;;;;363.48;221.25;;;;;;;6.46;73.86;93611.36;1717656;81;21664;-57
2020/12/31 08:28:39;;;;;;;275.57;167.75;;;;;;;6.60;73.92;93615.52;1698235;83;21523;-59
2020/12/31 08:31:12;;;;;;;276.25;172.70;;;;;;;6.69;73.48;93619.05;1713150;83;21388;-57
2020/12/31 08:33:40;;;;;;;296.90;182.85;;;;;;;6.60;73.35;93621.76;1713618;81;21195;-58
2020/12/31 08:36:11;;;;;;;293.90;186.67;;;;;;;6.58;73.58;93626.14;1717308;83;21659;-59
2020/12/31 08:38:40;;;;;;;312.02;189.95;;;;;;;6.62;73.73;93624.02;1709244;83;21321;-58
2020/12/31 08:41:08;;;;;;;303.50;183.20;;;;;;;6.65;73.71;93621.75;1716487;81;21496;-58
2020/12/31 08:43:45;;;;;;;268.67;160.82;;;;;;;6.71;73.58;93629.55;1717145;83;21918;-61
2020/12/31 08:46:23;;;;;;;282.77;172.28;;;;;;;6.69;73.53;93629.98;1706358;83;21393;-57
2020/12/31 08:48:55;;;;;;;320.05;197.93;;;;;;;6.75;73.77;93633.67;1717388;81;21124;-58
2020/12/31 08:51:28;;;;;;;328.73;203.32;;;;;;;6.82;73.85;93631.23;1708524;83;21118;-56
2020/12/31 08:54:01;;;;;;;337.80;213.18;;;;;;;6.87;73.94;93632.04;1722570;81;21064;-58
2020/12/31 08:56:32;;;;;;;369.82;228.85;;;;;;;6.94;73.99;93629.02;1691718;83;21186;-58
2020/12/31 08:59:10;;;;;;;348.57;215.65;;;;;;;7.03;73.80;93621.61;1725528;82;21663;-58
2020/12/31 09:01:39;;;;;;;332.05;208.50;;;;;;;7.06;73.64;93621.31;1697026;82;21157;-56
2020/12/31 09:04:18;;;;;;;360.10;218.55;;;;;;;7.06;73.36;93622.69;1725223;83;21108;-58
2020/12/31 09:06:51;;;;;;;345.02;218.20;;;;;;;7.06;73.38;93615.23;1725556;82;21590;-58
2020/12/31 09:09:26;;;;;;;367.48;225.20;;;;;;;7.05;73.42;93617.06;1725979;83;21587;-60
2020/12/31 09:12:08;;;;;;;384.43;233.68;;;;;;;7.01;73.25;93616.42;1724340;82;21667;-58
2020/12/31 09:14:39;;;;;;;365.12;224.80;;;;;;;6.99;73.71;93613.37;1725804;83;21123;-62
2020/12/31 09:17:23;;;;;;;317.95;203.62;;;;;;;7.09;73.91;93612.95;1693050;83;21067;-57
2020/12/31 09:19:54;;;;;;;325.38;204.38;;;;;;;7.20;73.76;93600.39;1724726;83;21527;-56
2020/12/31 09:22:24;;;;;;;319.73;203.10;;;;;;;7.24;73.69;93599.64;1727680;81;21372;-58
2020/12/31 09:24:56;;;;;;;313.70;201.05;;;;;;;7.29;73.71;93596.30;1727522;81;22211;-58
2020/12/31 09:27:25;;;;;;;406.07;255.57;;;;;;;7.37;73.99;93581.09;1741912;81;21119;-58
2020/12/31 09:29:58;;;;;;;380.23;246.07;;;;;;;7.50;73.99;93587.20;1744880;81;21212;-59
2020/12/31 09:32:27;;;;;;;400.10;251.05;;;;;;;7.58;73.74;93580.22;1756460;81;21194;-59
2020/12/31 09:35:02;;;;;;;374.07;236.90;;;;;;;7.57;73.83;93580.66;1761506;81;21220;-57
2020/12/31 09:37:55;;;;;;;400.70;256.00;;;;;;;7.56;73.74;93573.67;1762023;81;21268;-58
2020/12/31 09:40:24;;;;;;;398.02;258.50;;;;;;;7.60;73.62;93570.17;1761750;80;21162;-58
2020/12/31 09:42:52;;;;;;;399.07;259.43;;;;;;;7.63;73.55;93567.89;1720092;81;21228;-59
2020/12/31 09:45:21;;;;;;;395.82;264.08;;;;;;;7.70;73.83;93560.75;1730366;81;21170;-59
2020/12/31 09:47:51;;;;;;;408.98;272.15;;;;;;;7.80;73.87;93562.25;1723172;82;22732;-60
2020/12/31 09:50:20;;;;;;;429.30;293.77;;;;;;;7.87;74.10;93566.81;1705778;83;21218;-58
2020/12/31 09:52:51;;;;;;;408.90;269.55;;;;;;;8.02;74.13;93556.75;1724381;83;21202;-58
2020/12/31 09:55:21;;;;;;;380.57;256.13;;;;;;;8.18;73.88;93546.09;1719441;83;21175;-59
2020/12/31 09:57:51;;;;;;;394.80;269.52;;;;;;;8.27;73.74;93546.08;1725416;83;21171;-59
2020/12/31 10:00:20;;;;;;;395.95;268.00;;;;;;;8.35;73.87;93539.81;1753889;81;21406;-58
2020/12/31 10:02:51;;;;;;;386.10;256.43;;;;;;;8.56;73.82;93545.67;1761787;81;21099;-60
2020/12/31 10:05:20;;;;;;;322.63;210.97;;;;;;;8.77;73.27;93539.18;1726341;81;21638;-57
2020/12/31 10:07:49;;;;;;;274.35;183.70;;;;;;;8.88;72.62;93535.33;1724426;82;21643;-58
2020/12/31 10:10:18;;;;;;;260.50;172.72;;;;;;;8.98;72.35;93534.03;1733890;81;21359;-59
2020/12/31 10:12:55;;;;;;;316.95;210.23;;;;;;;9.18;72.33;93525.39;1717428;82;21368;-59
2020/12/31 10:15:23;;;;;;;219.50;148.00;;;;;;;9.49;72.42;93522.27;1725390;83;21136;-58
2020/12/31 10:17:55;;;;;;;240.97;162.92;;;;;;;9.85;72.15;93516.47;1725216;81;21191;-58
2020/12/31 10:20:24;;;;;;;;;;;;;;;10.17;71.65;93505.96;1716247;81;21572;-58
2020/12/31 10:22:52;;;;;;;205.62;142.22;;;;;;;10.56;71.47;93502.59;1725473;83;20230;-59
2020/12/31 10:25:20;;;;;;;197.45;133.30;;;;;;;10.79;70.86;93494.84;1724871;81;22153;-57
2020/12/31 10:27:48;;;;;;;151.25;98.12;;;;;;;10.97;69.83;93496.71;1729677;82;21588;-57
2020/12/31 10:30:16;;;;;;;113.75;76.70;;;;;;;11.15;68.81;93492.33;1728612;82;21112;-60
2020/12/31 10:32:45;;;;;;;109.72;70.62;;;;;;;11.19;68.06;93474.98;1667475;82;21610;-58
2020/12/31 10:35:13;;;;;;;134.27;80.03;;;;;;;11.18;67.26;93474.84;1724426;82;21139;-59
2020/12/31 10:37:42;;;;;;;154.72;96.00;;;;;;;11.06;67.21;93469.69;1725598;82;21879;-58
2020/12/31 10:40:10;;;;;;;119.17;69.10;;;;;;;10.96;67.25;93466.31;1724700;81;21187;-60
2020/12/31 10:42:38;;;;;;;127.62;77.42;;;;;;;10.91;67.08;93458.74;1725222;82;21210;-59
2020/12/31 10:45:08;;;;;;;128.27;77.08;;;;;;;10.90;67.02;93454.48;1714417;81;21096;-64
2020/12/31 10:47:44;;;;;;;128.40;81.40;;;;;;;10.92;66.87;93442.98;1721521;81;21555;-59
2020/12/31 10:50:12;;;;;;;82.67;53.60;;;;;;;11.05;66.97;93437.30;1724903;81;21191;-58
2020/12/31 10:52:40;;;;;;;91.35;60.58;;;;;;;11.24;67.04;93428.90;1719749;81;21680;-59
2020/12/31 10:55:10;;;;;;;101.33;65.60;;;;;;;11.39;66.28;93433.67;1728172;82;21192;-60
2020/12/31 10:57:41;;;;;;;78.90;52.67;;;;;;;11.63;65.81;93437.00;1736652;81;21630;-60
2020/12/31 11:00:11;;;;;;;59.05;43.40;;;;;;;11.90;65.00;93432.37;1669492;83;21198;-58
2020/12/31 11:02:41;;;;;;;45.38;31.82;;;;;;;12.08;63.69;93433.41;1729497;81;21358;-59
2020/12/31 11:05:10;;;;;;;38.88;27.75;;;;;;;12.09;62.84;93428.03;1723527;82;21823;-59
2020/12/31 11:07:38;;;;;;;21.37;16.12;;;;;;;12.21;62.75;93427.50;1742126;81;21210;-59
2020/12/31 11:10:07;;;;;;;17.10;10.88;;;;;;;12.59;61.88;93425.05;1727542;81;21104;-56
2020/12/31 11:12:35;;;;;;;32.20;24.40;;;;;;;12.88;60.93;93416.45;1732878;81;21619;-58
2020/12/31 11:15:04;;;;;;;40.33;28.32;;;;;;;13.08;60.42;93409.44;1727118;81;21469;-58
2020/12/31 11:17:33;;;;;;;43.70;31.62;;;;;;;13.26;59.75;93410.39;1713244;83;21186;-59
2020/12/31 11:20:03;;;;;;;33.42;24.82;;;;;;;13.24;59.21;93401.85;1743477;81;21116;-60
2020/12/31 11:22:32;;;;;;;51.23;36.53;;;;;;;13.00;59.43;93405.00;1753281;81;21139;-58
2020/12/31 11:25:01;;;;;;;67.47;47.70;;;;;;;12.62;60.09;93405.52;1762442;81;21224;-59
2020/12/31 11:27:29;;;;;;;41.20;30.82;;;;;;;12.31;60.71;93396.53;1726669;81;21272;-61
2020/12/31 11:29:58;;;;;;;145.25;88.80;;;;;;;11.96;61.34;93388.33;1725830;81;21556;-60
2020/12/31 11:32:30;;;;;;;143.45;101.82;;;;;;;11.74;62.12;93386.77;1724269;81;21496;-58